sensor_id;sensor_type;location;lat;lon;timestamp;temperature;humidity
49579;DHT22;35483;50.828;3.228;2023-08-24T00:02:03;21.90;89.40
49579;DHT22;35483;50.828;3.228;2023-08-24T00:04:29;21.90;89.50
49579;DHT22;35483;50.828;3.228;2023-08-24T00:06:55;21.90;89.40
49579;DHT22;35483;50.828;3.228;2023-08-24T00:09:20;21.90;89.30
49579;DHT22;35483;50.828;3.228;2023-08-24T00:11:46;21.90;89.40
49579;DHT22;35483;50.828;3.228;2023-08-24T00:14:12;21.90;89.40
49579;DHT22;35483;50.828;3.228;2023-08-24T00:16:38;21.90;89.40
49579;DHT22;35483;50.828;3.228;2023-08-24T00:19:04;21.90;89.40
49579;DHT22;35483;50.828;3.228;2023-08-24T00:21:30;21.90;89.30
49579;DHT22;35483;50.828;3.228;2023-08-24T00:23:56;21.90;89.30
49579;DHT22;35483;50.828;3.228;2023-08-24T00:26:22;21.90;89.40
49579;DHT22;35483;50.828;3.228;2023-08-24T00:28:49;21.90;89.50
49579;DHT22;35483;50.828;3.228;2023-08-24T00:31:18;22.00;89.40
49579;DHT22;35483;50.828;3.228;2023-08-24T00:33:44;22.00;89.60
49579;DHT22;35483;50.828;3.228;2023-08-24T00:36:09;22.00;89.40
49579;DHT22;35483;50.828;3.228;2023-08-24T00:38:35;22.00;89.40
49579;DHT22;35483;50.828;3.228;2023-08-24T00:41:02;22.00;89.60
49579;DHT22;35483;50.828;3.228;2023-08-24T00:43:28;22.00;89.50
49579;DHT22;35483;50.828;3.228;2023-08-24T00:45:59;22.00;89.50
49579;DHT22;35483;50.828;3.228;2023-08-24T00:48:27;22.00;89.90
49579;DHT22;35483;50.828;3.228;2023-08-24T00:51:00;22.00;89.50
49579;DHT22;35483;50.828;3.228;2023-08-24T00:53:29;22.00;89.80
49579;DHT22;35483;50.828;3.228;2023-08-24T00:55:55;22.00;89.60
49579;DHT22;35483;50.828;3.228;2023-08-24T00:58:21;22.00;89.80
49579;DHT22;35483;50.828;3.228;2023-08-24T01:00:51;22.00;90.00
49579;DHT22;35483;50.828;3.228;2023-08-24T01:03:17;22.00;90.00
49579;DHT22;35483;50.828;3.228;2023-08-24T01:05:44;22.00;90.10
49579;DHT22;35483;50.828;3.228;2023-08-24T01:08:11;22.00;90.00
49579;DHT22;35483;50.828;3.228;2023-08-24T01:11:02;22.00;90.10
49579;DHT22;35483;50.828;3.228;2023-08-24T01:16:18;21.90;91.30
49579;DHT22;35483;50.828;3.228;2023-08-24T01:18:45;21.80;90.30
49579;DHT22;35483;50.828;3.228;2023-08-24T01:21:12;21.80;90.30
49579;DHT22;35483;50.828;3.228;2023-08-24T01:23:57;21.80;90.30
49579;DHT22;35483;50.828;3.228;2023-08-24T01:26:29;21.80;91.00
49579;DHT22;35483;50.828;3.228;2023-08-24T01:28:55;21.70;90.40
49579;DHT22;35483;50.828;3.228;2023-08-24T01:31:21;21.70;90.40
49579;DHT22;35483;50.828;3.228;2023-08-24T01:33:46;21.60;90.40
49579;DHT22;35483;50.828;3.228;2023-08-24T01:36:15;21.60;90.50
49579;DHT22;35483;50.828;3.228;2023-08-24T01:38:49;21.60;90.60
49579;DHT22;35483;50.828;3.228;2023-08-24T01:41:19;21.50;90.80
49579;DHT22;35483;50.828;3.228;2023-08-24T01:43:49;21.50;90.60
49579;DHT22;35483;50.828;3.228;2023-08-24T01:46:19;21.40;90.80
49579;DHT22;35483;50.828;3.228;2023-08-24T01:48:46;21.40;90.80
49579;DHT22;35483;50.828;3.228;2023-08-24T01:51:13;21.40;90.80
49579;DHT22;35483;50.828;3.228;2023-08-24T01:53:40;21.40;90.90
49579;DHT22;35483;50.828;3.228;2023-08-24T01:56:10;21.30;90.80
49579;DHT22;35483;50.828;3.228;2023-08-24T01:58:37;21.30;91.00
49579;DHT22;35483;50.828;3.228;2023-08-24T02:01:03;21.20;90.70
49579;DHT22;35483;50.828;3.228;2023-08-24T02:03:29;21.20;90.70
49579;DHT22;35483;50.828;3.228;2023-08-24T02:05:56;21.10;90.90
49579;DHT22;35483;50.828;3.228;2023-08-24T02:08:22;21.10;90.70
49579;DHT22;35483;50.828;3.228;2023-08-24T02:10:47;21.10;90.70
49579;DHT22;35483;50.828;3.228;2023-08-24T02:13:13;21.00;90.80
49579;DHT22;35483;50.828;3.228;2023-08-24T02:15:39;21.00;90.90
49579;DHT22;35483;50.828;3.228;2023-08-24T02:18:06;21.00;91.00
49579;DHT22;35483;50.828;3.228;2023-08-24T02:20:38;20.90;91.00
49579;DHT22;35483;50.828;3.228;2023-08-24T02:23:04;20.90;91.10
49579;DHT22;35483;50.828;3.228;2023-08-24T02:25:30;20.90;91.00
49579;DHT22;35483;50.828;3.228;2023-08-24T02:27:57;20.90;91.00
49579;DHT22;35483;50.828;3.228;2023-08-24T02:30:22;20.90;91.00
49579;DHT22;35483;50.828;3.228;2023-08-24T02:32:49;20.80;91.00
49579;DHT22;35483;50.828;3.228;2023-08-24T02:35:15;20.90;91.00
49579;DHT22;35483;50.828;3.228;2023-08-24T02:37:41;20.80;91.00
49579;DHT22;35483;50.828;3.228;2023-08-24T02:40:07;20.80;91.00
49579;DHT22;35483;50.828;3.228;2023-08-24T02:42:34;20.80;91.10
49579;DHT22;35483;50.828;3.228;2023-08-24T02:45:00;20.80;91.20
49579;DHT22;35483;50.828;3.228;2023-08-24T02:47:26;20.80;91.40
49579;DHT22;35483;50.828;3.228;2023-08-24T02:49:52;20.80;91.20
49579;DHT22;35483;50.828;3.228;2023-08-24T02:52:18;20.80;91.20
49579;DHT22;35483;50.828;3.228;2023-08-24T02:54:44;20.80;91.20
49579;DHT22;35483;50.828;3.228;2023-08-24T02:57:09;20.80;91.20
49579;DHT22;35483;50.828;3.228;2023-08-24T02:59:35;20.70;91.20
49579;DHT22;35483;50.828;3.228;2023-08-24T03:02:01;20.70;91.30
49579;DHT22;35483;50.828;3.228;2023-08-24T03:04:27;20.70;91.30
49579;DHT22;35483;50.828;3.228;2023-08-24T03:06:53;20.70;91.40
49579;DHT22;35483;50.828;3.228;2023-08-24T03:09:18;20.70;91.40
49579;DHT22;35483;50.828;3.228;2023-08-24T03:11:44;20.70;91.40
49579;DHT22;35483;50.828;3.228;2023-08-24T03:14:10;20.60;91.50
49579;DHT22;35483;50.828;3.228;2023-08-24T03:16:37;20.60;91.50
49579;DHT22;35483;50.828;3.228;2023-08-24T03:19:04;20.60;91.50
49579;DHT22;35483;50.828;3.228;2023-08-24T03:21:31;20.60;91.50
49579;DHT22;35483;50.828;3.228;2023-08-24T03:23:57;20.60;91.50
49579;DHT22;35483;50.828;3.228;2023-08-24T03:26:23;20.50;91.60
49579;DHT22;35483;50.828;3.228;2023-08-24T03:28:49;20.50;91.60
49579;DHT22;35483;50.828;3.228;2023-08-24T03:31:15;20.50;91.60
49579;DHT22;35483;50.828;3.228;2023-08-24T03:33:41;20.50;91.60
49579;DHT22;35483;50.828;3.228;2023-08-24T03:36:07;20.40;91.70
49579;DHT22;35483;50.828;3.228;2023-08-24T03:38:32;20.40;91.70
49579;DHT22;35483;50.828;3.228;2023-08-24T03:41:04;20.40;91.70
49579;DHT22;35483;50.828;3.228;2023-08-24T03:43:35;20.40;92.00
49579;DHT22;35483;50.828;3.228;2023-08-24T03:46:02;20.40;92.00
49579;DHT22;35483;50.828;3.228;2023-08-24T03:48:30;20.30;91.70
49579;DHT22;35483;50.828;3.228;2023-08-24T03:50:57;20.40;91.70
49579;DHT22;35483;50.828;3.228;2023-08-24T03:53:24;20.30;91.80
49579;DHT22;35483;50.828;3.228;2023-08-24T03:55:51;20.30;91.80
49579;DHT22;35483;50.828;3.228;2023-08-24T03:58:17;20.30;91.80
49579;DHT22;35483;50.828;3.228;2023-08-24T04:00:44;20.30;91.80
49579;DHT22;35483;50.828;3.228;2023-08-24T04:03:10;20.30;91.80
49579;DHT22;35483;50.828;3.228;2023-08-24T04:05:36;20.30;91.80
49579;DHT22;35483;50.828;3.228;2023-08-24T04:08:02;20.30;91.80
49579;DHT22;35483;50.828;3.228;2023-08-24T04:10:29;20.30;91.90
49579;DHT22;35483;50.828;3.228;2023-08-24T04:12:55;20.30;92.00
49579;DHT22;35483;50.828;3.228;2023-08-24T04:15:21;20.30;91.90
49579;DHT22;35483;50.828;3.228;2023-08-24T04:17:48;20.30;91.90
49579;DHT22;35483;50.828;3.228;2023-08-24T04:20:14;20.30;92.00
49579;DHT22;35483;50.828;3.228;2023-08-24T04:22:41;20.30;92.00
49579;DHT22;35483;50.828;3.228;2023-08-24T04:25:08;20.20;92.00
49579;DHT22;35483;50.828;3.228;2023-08-24T04:27:34;20.20;92.00
49579;DHT22;35483;50.828;3.228;2023-08-24T04:29:59;20.20;92.00
49579;DHT22;35483;50.828;3.228;2023-08-24T04:32:27;20.20;92.00
49579;DHT22;35483;50.828;3.228;2023-08-24T04:34:53;20.20;92.00
49579;DHT22;35483;50.828;3.228;2023-08-24T04:37:18;20.20;92.10
49579;DHT22;35483;50.828;3.228;2023-08-24T04:39:44;20.20;92.10
49579;DHT22;35483;50.828;3.228;2023-08-24T04:42:10;20.20;92.20
49579;DHT22;35483;50.828;3.228;2023-08-24T04:44:35;20.20;92.10
49579;DHT22;35483;50.828;3.228;2023-08-24T04:47:01;20.20;92.20
49579;DHT22;35483;50.828;3.228;2023-08-24T04:49:27;20.20;92.20
49579;DHT22;35483;50.828;3.228;2023-08-24T04:51:54;20.20;92.20
49579;DHT22;35483;50.828;3.228;2023-08-24T04:54:20;20.20;92.20
49579;DHT22;35483;50.828;3.228;2023-08-24T04:56:46;20.20;92.30
49579;DHT22;35483;50.828;3.228;2023-08-24T04:59:12;20.20;92.30
49579;DHT22;35483;50.828;3.228;2023-08-24T05:01:38;20.20;92.30
49579;DHT22;35483;50.828;3.228;2023-08-24T05:04:04;20.20;92.30
49579;DHT22;35483;50.828;3.228;2023-08-24T05:06:29;20.20;92.20
49579;DHT22;35483;50.828;3.228;2023-08-24T05:08:55;20.20;92.20
49579;DHT22;35483;50.828;3.228;2023-08-24T05:11:23;20.30;92.20
49579;DHT22;35483;50.828;3.228;2023-08-24T05:13:52;20.30;92.20
49579;DHT22;35483;50.828;3.228;2023-08-24T05:16:18;20.30;92.20
49579;DHT22;35483;50.828;3.228;2023-08-24T05:18:44;20.30;92.20
49579;DHT22;35483;50.828;3.228;2023-08-24T05:21:09;20.30;92.30
49579;DHT22;35483;50.828;3.228;2023-08-24T05:23:35;20.30;92.30
49579;DHT22;35483;50.828;3.228;2023-08-24T05:26:02;20.40;92.20
49579;DHT22;35483;50.828;3.228;2023-08-24T05:28:29;20.50;92.20
49579;DHT22;35483;50.828;3.228;2023-08-24T05:30:55;20.50;92.20
49579;DHT22;35483;50.828;3.228;2023-08-24T05:33:22;20.50;92.10
49579;DHT22;35483;50.828;3.228;2023-08-24T05:35:49;20.60;92.00
49579;DHT22;35483;50.828;3.228;2023-08-24T05:38:16;20.60;92.10
49579;DHT22;35483;50.828;3.228;2023-08-24T05:40:42;20.70;92.10
49579;DHT22;35483;50.828;3.228;2023-08-24T05:43:11;20.70;92.10
49579;DHT22;35483;50.828;3.228;2023-08-24T05:45:37;20.80;92.20
49579;DHT22;35483;50.828;3.228;2023-08-24T05:48:05;20.80;92.00
49579;DHT22;35483;50.828;3.228;2023-08-24T05:50:31;20.90;92.00
49579;DHT22;35483;50.828;3.228;2023-08-24T05:52:57;20.90;92.00
49579;DHT22;35483;50.828;3.228;2023-08-24T05:55:23;21.00;92.00
49579;DHT22;35483;50.828;3.228;2023-08-24T05:57:48;21.00;92.00
49579;DHT22;35483;50.828;3.228;2023-08-24T06:00:14;21.10;92.00
49579;DHT22;35483;50.828;3.228;2023-08-24T06:02:41;21.20;91.90
49579;DHT22;35483;50.828;3.228;2023-08-24T06:05:07;21.30;91.90
49579;DHT22;35483;50.828;3.228;2023-08-24T06:07:34;21.40;91.80
49579;DHT22;35483;50.828;3.228;2023-08-24T06:10:00;21.50;91.80
49579;DHT22;35483;50.828;3.228;2023-08-24T06:12:26;21.60;91.70
49579;DHT22;35483;50.828;3.228;2023-08-24T06:14:51;21.70;91.60
49579;DHT22;35483;50.828;3.228;2023-08-24T06:17:17;21.80;91.70
49579;DHT22;35483;50.828;3.228;2023-08-24T06:19:43;21.90;91.70
49579;DHT22;35483;50.828;3.228;2023-08-24T06:22:09;22.00;91.70
49579;DHT22;35483;50.828;3.228;2023-08-24T06:24:36;22.10;91.70
49579;DHT22;35483;50.828;3.228;2023-08-24T06:27:02;22.10;91.70
49579;DHT22;35483;50.828;3.228;2023-08-24T06:29:29;22.20;91.70
49579;DHT22;35483;50.828;3.228;2023-08-24T06:31:55;22.30;91.70
49579;DHT22;35483;50.828;3.228;2023-08-24T06:34:21;22.30;91.70
49579;DHT22;35483;50.828;3.228;2023-08-24T06:36:47;22.40;91.70
49579;DHT22;35483;50.828;3.228;2023-08-24T06:39:13;22.40;91.70
49579;DHT22;35483;50.828;3.228;2023-08-24T06:41:39;22.40;91.70
49579;DHT22;35483;50.828;3.228;2023-08-24T06:44:05;22.40;91.70
49579;DHT22;35483;50.828;3.228;2023-08-24T06:46:31;22.50;91.80
49579;DHT22;35483;50.828;3.228;2023-08-24T06:48:57;22.60;91.80
49579;DHT22;35483;50.828;3.228;2023-08-24T06:51:23;22.50;91.80
49579;DHT22;35483;50.828;3.228;2023-08-24T06:53:48;22.60;91.90
49579;DHT22;35483;50.828;3.228;2023-08-24T06:56:14;22.50;91.90
49579;DHT22;35483;50.828;3.228;2023-08-24T06:58:44;22.60;91.90
49579;DHT22;35483;50.828;3.228;2023-08-24T07:01:10;22.50;91.90
49579;DHT22;35483;50.828;3.228;2023-08-24T07:03:37;22.60;91.90
49579;DHT22;35483;50.828;3.228;2023-08-24T07:06:04;22.50;91.90
49579;DHT22;35483;50.828;3.228;2023-08-24T07:08:30;22.60;92.00
49579;DHT22;35483;50.828;3.228;2023-08-24T07:10:56;22.60;92.10
49579;DHT22;35483;50.828;3.228;2023-08-24T07:13:22;22.50;92.10
49579;DHT22;35483;50.828;3.228;2023-08-24T07:15:47;22.50;92.10
49579;DHT22;35483;50.828;3.228;2023-08-24T07:18:13;22.50;92.10
49579;DHT22;35483;50.828;3.228;2023-08-24T07:20:39;22.50;92.10
49579;DHT22;35483;50.828;3.228;2023-08-24T07:23:04;22.50;92.10
49579;DHT22;35483;50.828;3.228;2023-08-24T07:25:30;22.50;92.20
49579;DHT22;35483;50.828;3.228;2023-08-24T07:27:57;22.50;92.20
49579;DHT22;35483;50.828;3.228;2023-08-24T07:30:26;22.50;92.20
49579;DHT22;35483;50.828;3.228;2023-08-24T07:32:53;22.50;92.20
49579;DHT22;35483;50.828;3.228;2023-08-24T07:35:20;22.50;92.20
49579;DHT22;35483;50.828;3.228;2023-08-24T07:37:47;22.50;92.20
49579;DHT22;35483;50.828;3.228;2023-08-24T07:40:13;22.40;92.30
49579;DHT22;35483;50.828;3.228;2023-08-24T07:42:43;22.50;92.30
49579;DHT22;35483;50.828;3.228;2023-08-24T07:45:10;22.40;92.50
49579;DHT22;35483;50.828;3.228;2023-08-24T07:47:35;22.40;92.30
49579;DHT22;35483;50.828;3.228;2023-08-24T07:50:01;22.40;92.40
49579;DHT22;35483;50.828;3.228;2023-08-24T07:52:27;22.40;92.40
49579;DHT22;35483;50.828;3.228;2023-08-24T07:54:54;22.40;92.50
49579;DHT22;35483;50.828;3.228;2023-08-24T07:57:20;22.30;92.50
49579;DHT22;35483;50.828;3.228;2023-08-24T07:59:46;22.30;92.60
49579;DHT22;35483;50.828;3.228;2023-08-24T08:02:12;22.30;92.60
49579;DHT22;35483;50.828;3.228;2023-08-24T08:04:40;22.30;92.70
49579;DHT22;35483;50.828;3.228;2023-08-24T08:07:06;22.30;92.70
49579;DHT22;35483;50.828;3.228;2023-08-24T08:09:32;22.30;92.70
49579;DHT22;35483;50.828;3.228;2023-08-24T08:11:58;22.30;92.70
49579;DHT22;35483;50.828;3.228;2023-08-24T08:14:23;22.30;92.70
49579;DHT22;35483;50.828;3.228;2023-08-24T08:16:51;22.20;92.80
49579;DHT22;35483;50.828;3.228;2023-08-24T08:19:17;22.20;92.80
49579;DHT22;35483;50.828;3.228;2023-08-24T08:21:44;22.20;92.80
49579;DHT22;35483;50.828;3.228;2023-08-24T08:24:10;22.20;92.90
49579;DHT22;35483;50.828;3.228;2023-08-24T08:26:36;22.20;92.90
49579;DHT22;35483;50.828;3.228;2023-08-24T08:29:02;22.20;92.90
49579;DHT22;35483;50.828;3.228;2023-08-24T08:31:28;22.20;93.00
49579;DHT22;35483;50.828;3.228;2023-08-24T08:33:53;22.20;92.90
49579;DHT22;35483;50.828;3.228;2023-08-24T08:36:19;22.10;92.90
49579;DHT22;35483;50.828;3.228;2023-08-24T08:38:45;22.10;92.90
49579;DHT22;35483;50.828;3.228;2023-08-24T08:41:11;22.10;92.90
49579;DHT22;35483;50.828;3.228;2023-08-24T08:43:38;22.00;92.90
49579;DHT22;35483;50.828;3.228;2023-08-24T08:46:04;22.00;93.10
49579;DHT22;35483;50.828;3.228;2023-08-24T08:48:34;21.90;93.00
49579;DHT22;35483;50.828;3.228;2023-08-24T08:51:01;21.90;93.20
49579;DHT22;35483;50.828;3.228;2023-08-24T08:53:28;21.90;93.10
49579;DHT22;35483;50.828;3.228;2023-08-24T08:55:55;21.90;93.10
49579;DHT22;35483;50.828;3.228;2023-08-24T08:58:23;21.90;93.30
49579;DHT22;35483;50.828;3.228;2023-08-24T09:00:51;21.90;93.40
49579;DHT22;35483;50.828;3.228;2023-08-24T09:03:18;21.80;93.30
49579;DHT22;35483;50.828;3.228;2023-08-24T09:05:44;21.80;93.30
49579;DHT22;35483;50.828;3.228;2023-08-24T09:08:17;21.80;93.30
49579;DHT22;35483;50.828;3.228;2023-08-24T09:10:43;21.80;93.50
49579;DHT22;35483;50.828;3.228;2023-08-24T09:13:10;21.70;93.60
49579;DHT22;35483;50.828;3.228;2023-08-24T09:15:36;21.80;93.90
49579;DHT22;35483;50.828;3.228;2023-08-24T09:18:02;21.80;93.80
49579;DHT22;35483;50.828;3.228;2023-08-24T09:20:29;21.70;93.70
49579;DHT22;35483;50.828;3.228;2023-08-24T09:22:55;21.80;93.90
49579;DHT22;35483;50.828;3.228;2023-08-24T09:25:23;21.80;94.00
49579;DHT22;35483;50.828;3.228;2023-08-24T09:30:29;21.80;95.70
49579;DHT22;35483;50.828;3.228;2023-08-24T09:32:55;21.70;95.00
49579;DHT22;35483;50.828;3.228;2023-08-24T09:35:21;21.60;94.20
49579;DHT22;35483;50.828;3.228;2023-08-24T09:37:49;21.60;94.20
49579;DHT22;35483;50.828;3.228;2023-08-24T09:40:15;21.60;94.30
49579;DHT22;35483;50.828;3.228;2023-08-24T09:42:42;21.70;94.10
49579;DHT22;35483;50.828;3.228;2023-08-24T09:45:14;21.60;94.40
49579;DHT22;35483;50.828;3.228;2023-08-24T09:47:51;21.70;96.70
49579;DHT22;35483;50.828;3.228;2023-08-24T09:50:18;21.70;95.00
49579;DHT22;35483;50.828;3.228;2023-08-24T09:52:44;21.80;94.20
49579;DHT22;35483;50.828;3.228;2023-08-24T09:55:13;21.90;94.50
49579;DHT22;35483;50.828;3.228;2023-08-24T09:57:44;22.00;94.40
49579;DHT22;35483;50.828;3.228;2023-08-24T10:00:10;22.20;94.50
49579;DHT22;35483;50.828;3.228;2023-08-24T10:02:48;22.30;94.20
49579;DHT22;35483;50.828;3.228;2023-08-24T10:05:18;22.60;94.60
49579;DHT22;35483;50.828;3.228;2023-08-24T10:07:52;22.80;94.10
49579;DHT22;35483;50.828;3.228;2023-08-24T10:10:20;23.00;94.70
49579;DHT22;35483;50.828;3.228;2023-08-24T10:12:50;23.20;94.10
49579;DHT22;35483;50.828;3.228;2023-08-24T10:15:18;23.40;94.00
49579;DHT22;35483;50.828;3.228;2023-08-24T10:17:44;23.50;93.80
49579;DHT22;35483;50.828;3.228;2023-08-24T10:20:11;23.70;93.70
49579;DHT22;35483;50.828;3.228;2023-08-24T10:22:37;23.70;93.80
49579;DHT22;35483;50.828;3.228;2023-08-24T10:25:07;23.70;93.90
49579;DHT22;35483;50.828;3.228;2023-08-24T10:27:35;23.70;93.80
49579;DHT22;35483;50.828;3.228;2023-08-24T10:30:01;23.80;94.10
49579;DHT22;35483;50.828;3.228;2023-08-24T10:32:28;23.90;93.90
49579;DHT22;35483;50.828;3.228;2023-08-24T10:34:54;24.00;93.80
49579;DHT22;35483;50.828;3.228;2023-08-24T10:37:27;24.10;93.70
49579;DHT22;35483;50.828;3.228;2023-08-24T10:39:53;24.30;94.90
49579;DHT22;35483;50.828;3.228;2023-08-24T10:42:19;24.40;93.60
49579;DHT22;35483;50.828;3.228;2023-08-24T10:44:47;24.60;93.70
49579;DHT22;35483;50.828;3.228;2023-08-24T10:47:23;24.60;93.60
49579;DHT22;35483;50.828;3.228;2023-08-24T10:52:30;24.60;93.50
49579;DHT22;35483;50.828;3.228;2023-08-24T10:54:56;24.50;93.40
49579;DHT22;35483;50.828;3.228;2023-08-24T10:57:38;24.40;95.00
49579;DHT22;35483;50.828;3.228;2023-08-24T11:00:07;24.40;94.00
49579;DHT22;35483;50.828;3.228;2023-08-24T11:02:50;24.20;93.70
49579;DHT22;35483;50.828;3.228;2023-08-24T11:07:55;24.10;93.70
49579;DHT22;35483;50.828;3.228;2023-08-24T11:10:26;24.00;93.70
49579;DHT22;35483;50.828;3.228;2023-08-24T11:15:46;23.90;94.00
49579;DHT22;35483;50.828;3.228;2023-08-24T11:18:25;23.90;94.70
49579;DHT22;35483;50.828;3.228;2023-08-24T11:21:05;23.90;94.70
49579;DHT22;35483;50.828;3.228;2023-08-24T11:23:32;24.00;94.50
49579;DHT22;35483;50.828;3.228;2023-08-24T11:26:00;24.00;93.70
49579;DHT22;35483;50.828;3.228;2023-08-24T11:28:27;24.00;93.80
49579;DHT22;35483;50.828;3.228;2023-08-24T11:30:54;24.10;93.80
49579;DHT22;35483;50.828;3.228;2023-08-24T11:33:31;24.10;93.80
49579;DHT22;35483;50.828;3.228;2023-08-24T11:35:59;24.10;94.10
49579;DHT22;35483;50.828;3.228;2023-08-24T11:38:34;24.10;93.80
49579;DHT22;35483;50.828;3.228;2023-08-24T11:41:00;24.10;93.80
49579;DHT22;35483;50.828;3.228;2023-08-24T11:43:26;24.20;93.80
49579;DHT22;35483;50.828;3.228;2023-08-24T11:45:54;24.20;93.80
49579;DHT22;35483;50.828;3.228;2023-08-24T11:48:26;24.20;93.80
49579;DHT22;35483;50.828;3.228;2023-08-24T11:50:55;24.30;93.90
49579;DHT22;35483;50.828;3.228;2023-08-24T11:53:22;24.40;93.70
49579;DHT22;35483;50.828;3.228;2023-08-24T11:55:48;24.40;93.90
49579;DHT22;35483;50.828;3.228;2023-08-24T11:58:15;24.40;93.70
49579;DHT22;35483;50.828;3.228;2023-08-24T12:00:42;24.40;93.60
49579;DHT22;35483;50.828;3.228;2023-08-24T12:03:08;24.50;93.70
49579;DHT22;35483;50.828;3.228;2023-08-24T12:05:35;24.70;93.60
49579;DHT22;35483;50.828;3.228;2023-08-24T12:08:01;24.70;93.60
49579;DHT22;35483;50.828;3.228;2023-08-24T12:10:27;24.80;93.60
49579;DHT22;35483;50.828;3.228;2023-08-24T12:13:05;24.80;93.50
49579;DHT22;35483;50.828;3.228;2023-08-24T12:15:34;24.90;93.80
49579;DHT22;35483;50.828;3.228;2023-08-24T12:18:13;24.90;93.40
49579;DHT22;35483;50.828;3.228;2023-08-24T12:20:43;24.90;93.40
49579;DHT22;35483;50.828;3.228;2023-08-24T12:23:10;24.90;93.30
49579;DHT22;35483;50.828;3.228;2023-08-24T12:25:43;24.70;93.30
49579;DHT22;35483;50.828;3.228;2023-08-24T12:28:14;24.60;93.40
49579;DHT22;35483;50.828;3.228;2023-08-24T12:30:51;24.60;93.40
49579;DHT22;35483;50.828;3.228;2023-08-24T12:33:24;24.50;93.50
49579;DHT22;35483;50.828;3.228;2023-08-24T12:35:50;24.50;93.50
49579;DHT22;35483;50.828;3.228;2023-08-24T12:38:16;24.50;93.40
49579;DHT22;35483;50.828;3.228;2023-08-24T12:40:42;24.60;93.40
49579;DHT22;35483;50.828;3.228;2023-08-24T12:43:09;24.60;93.40
49579;DHT22;35483;50.828;3.228;2023-08-24T12:45:35;24.70;93.40
49579;DHT22;35483;50.828;3.228;2023-08-24T12:48:04;24.70;93.30
49579;DHT22;35483;50.828;3.228;2023-08-24T12:50:29;24.80;93.20
49579;DHT22;35483;50.828;3.228;2023-08-24T12:52:56;24.80;93.20
49579;DHT22;35483;50.828;3.228;2023-08-24T12:55:26;24.90;93.20
49579;DHT22;35483;50.828;3.228;2023-08-24T12:57:52;25.00;93.20
49579;DHT22;35483;50.828;3.228;2023-08-24T13:00:19;25.10;93.10
49579;DHT22;35483;50.828;3.228;2023-08-24T13:02:45;25.20;93.10
49579;DHT22;35483;50.828;3.228;2023-08-24T13:05:10;25.30;93.10
49579;DHT22;35483;50.828;3.228;2023-08-24T13:07:37;25.40;93.10
49579;DHT22;35483;50.828;3.228;2023-08-24T13:10:03;25.50;93.00
49579;DHT22;35483;50.828;3.228;2023-08-24T13:12:30;25.50;93.00
49579;DHT22;35483;50.828;3.228;2023-08-24T13:14:56;25.50;93.00
49579;DHT22;35483;50.828;3.228;2023-08-24T13:17:21;25.60;93.00
49579;DHT22;35483;50.828;3.228;2023-08-24T13:19:47;25.70;93.00
49579;DHT22;35483;50.828;3.228;2023-08-24T13:22:14;25.80;93.00
49579;DHT22;35483;50.828;3.228;2023-08-24T13:24:41;26.00;92.90
49579;DHT22;35483;50.828;3.228;2023-08-24T13:27:08;26.00;92.80
49579;DHT22;35483;50.828;3.228;2023-08-24T13:29:36;26.10;92.80
49579;DHT22;35483;50.828;3.228;2023-08-24T13:32:03;26.10;92.80
49579;DHT22;35483;50.828;3.228;2023-08-24T13:34:29;26.10;92.70
49579;DHT22;35483;50.828;3.228;2023-08-24T13:36:56;26.10;92.70
49579;DHT22;35483;50.828;3.228;2023-08-24T13:39:26;26.10;92.70
49579;DHT22;35483;50.828;3.228;2023-08-24T13:41:55;26.10;92.70
49579;DHT22;35483;50.828;3.228;2023-08-24T13:44:22;26.10;92.70
49579;DHT22;35483;50.828;3.228;2023-08-24T13:46:48;26.20;92.70
49579;DHT22;35483;50.828;3.228;2023-08-24T13:49:13;26.30;92.70
49579;DHT22;35483;50.828;3.228;2023-08-24T13:51:39;26.30;92.60
49579;DHT22;35483;50.828;3.228;2023-08-24T13:54:19;26.30;92.60
49579;DHT22;35483;50.828;3.228;2023-08-24T13:56:47;26.30;92.50
49579;DHT22;35483;50.828;3.228;2023-08-24T13:59:14;26.20;92.60
49579;DHT22;35483;50.828;3.228;2023-08-24T14:01:41;26.00;92.70
49579;DHT22;35483;50.828;3.228;2023-08-24T14:04:07;25.90;92.70
49579;DHT22;35483;50.828;3.228;2023-08-24T14:06:34;25.90;92.80
49579;DHT22;35483;50.828;3.228;2023-08-24T14:09:00;25.90;92.80
49579;DHT22;35483;50.828;3.228;2023-08-24T14:11:27;25.90;92.80
49579;DHT22;35483;50.828;3.228;2023-08-24T14:13:53;25.90;92.80
49579;DHT22;35483;50.828;3.228;2023-08-24T14:16:19;25.90;92.70
49579;DHT22;35483;50.828;3.228;2023-08-24T14:18:45;26.00;92.70
49579;DHT22;35483;50.828;3.228;2023-08-24T14:21:11;26.00;92.60
49579;DHT22;35483;50.828;3.228;2023-08-24T14:23:37;26.00;92.60
49579;DHT22;35483;50.828;3.228;2023-08-24T14:26:03;25.90;92.70
49579;DHT22;35483;50.828;3.228;2023-08-24T14:31:18;25.90;92.60
49579;DHT22;35483;50.828;3.228;2023-08-24T14:33:44;26.00;92.60
49579;DHT22;35483;50.828;3.228;2023-08-24T14:36:10;26.10;92.60
49579;DHT22;35483;50.828;3.228;2023-08-24T14:38:39;26.20;92.60
49579;DHT22;35483;50.828;3.228;2023-08-24T14:41:05;26.30;92.60
49579;DHT22;35483;50.828;3.228;2023-08-24T14:43:31;26.40;92.50
49579;DHT22;35483;50.828;3.228;2023-08-24T14:45:57;26.50;92.50
49579;DHT22;35483;50.828;3.228;2023-08-24T14:48:23;26.50;92.40
49579;DHT22;35483;50.828;3.228;2023-08-24T14:50:49;26.60;92.40
49579;DHT22;35483;50.828;3.228;2023-08-24T14:53:14;26.70;92.40
49579;DHT22;35483;50.828;3.228;2023-08-24T14:55:41;26.70;92.30
49579;DHT22;35483;50.828;3.228;2023-08-24T14:58:07;26.70;92.30
49579;DHT22;35483;50.828;3.228;2023-08-24T15:00:33;26.70;92.30
49579;DHT22;35483;50.828;3.228;2023-08-24T15:02:59;26.70;92.30
49579;DHT22;35483;50.828;3.228;2023-08-24T15:05:25;26.70;92.30
49579;DHT22;35483;50.828;3.228;2023-08-24T15:07:51;26.80;92.30
49579;DHT22;35483;50.828;3.228;2023-08-24T15:10:17;26.70;92.20
49579;DHT22;35483;50.828;3.228;2023-08-24T15:12:45;26.70;92.30
49579;DHT22;35483;50.828;3.228;2023-08-24T15:15:11;26.60;92.30
49579;DHT22;35483;50.828;3.228;2023-08-24T15:17:37;26.70;92.30
49579;DHT22;35483;50.828;3.228;2023-08-24T15:20:03;26.70;92.30
49579;DHT22;35483;50.828;3.228;2023-08-24T15:22:32;26.70;92.30
49579;DHT22;35483;50.828;3.228;2023-08-24T15:24:59;26.70;92.20
49579;DHT22;35483;50.828;3.228;2023-08-24T15:27:25;26.60;92.30
49579;DHT22;35483;50.828;3.228;2023-08-24T15:29:50;26.60;92.30
49579;DHT22;35483;50.828;3.228;2023-08-24T15:32:19;26.50;92.30
49579;DHT22;35483;50.828;3.228;2023-08-24T15:34:45;26.60;92.40
49579;DHT22;35483;50.828;3.228;2023-08-24T15:37:11;26.70;92.40
49579;DHT22;35483;50.828;3.228;2023-08-24T15:39:38;26.70;92.30
49579;DHT22;35483;50.828;3.228;2023-08-24T15:42:07;26.80;92.30
49579;DHT22;35483;50.828;3.228;2023-08-24T15:44:33;26.80;92.20
49579;DHT22;35483;50.828;3.228;2023-08-24T15:47:00;26.80;92.20